createdAt,value
2019-02-10T00:01:54.136Z,18.97
2019-02-10T00:04:23.620Z,20.77
2019-02-10T00:06:52.751Z,28.20
2019-02-10T00:09:23.590Z,19.77
2019-02-10T00:11:52.749Z,19.50
2019-02-10T00:14:21.780Z,18.20
2019-02-10T00:16:50.794Z,24.80
2019-02-10T00:19:20.495Z,19.30
2019-02-10T00:21:50.035Z,14.33
2019-02-10T00:24:19.077Z,18.57
2019-02-10T00:26:48.701Z,14.87
2019-02-10T00:29:17.720Z,15.13
2019-02-10T00:31:46.803Z,11.13
2019-02-10T00:34:16.339Z,17.20
2019-02-10T00:36:45.795Z,21.33
2019-02-10T00:39:16.125Z,17.97
2019-02-10T00:41:45.183Z,20.00
2019-02-10T00:44:14.544Z,18.43
2019-02-10T00:46:43.979Z,14.40
2019-02-10T00:49:14.935Z,18.27
2019-02-10T00:51:43.933Z,15.90
2019-02-10T00:54:12.965Z,15.43
2019-02-10T00:56:42.367Z,21.17
2019-02-10T00:59:11.910Z,23.90
2019-02-10T01:01:41.331Z,19.47
2019-02-10T01:04:10.854Z,22.27
2019-02-10T01:06:41.497Z,19.43
2019-02-10T01:09:11.449Z,15.97
2019-02-10T01:11:41.503Z,19.00
2019-02-10T01:14:11.055Z,17.57
2019-02-10T01:16:40.049Z,17.83
2019-02-10T01:19:12.310Z,18.50
2019-02-10T01:21:42.993Z,14.87
2019-02-10T01:24:12.415Z,19.90
2019-02-10T01:26:41.647Z,22.17
2019-02-10T01:29:11.606Z,21.70
2019-02-10T01:31:41.249Z,14.60
2019-02-10T01:34:11.590Z,16.67
2019-02-10T01:36:40.659Z,23.90
2019-02-10T01:39:20.411Z,17.10
2019-02-10T01:41:49.497Z,18.13
2019-02-10T01:44:19.115Z,16.97
2019-02-10T01:46:48.203Z,18.87
2019-02-10T01:49:17.264Z,18.47
2019-02-10T01:51:47.122Z,21.73
2019-02-10T01:54:16.571Z,18.97
2019-02-10T01:56:46.252Z,15.17
2019-02-10T01:59:15.325Z,17.73
2019-02-10T02:01:44.569Z,16.00
2019-02-10T02:04:13.742Z,16.63
2019-02-10T02:06:43.135Z,22.70
2019-02-10T02:09:13.887Z,17.80
2019-02-10T02:11:44.245Z,18.27
2019-02-10T02:14:13.596Z,14.93
2019-02-10T02:16:44.136Z,10.33
2019-02-10T02:19:13.353Z,10.47
2019-02-10T02:21:42.440Z,7.80
2019-02-10T02:24:11.665Z,10.13
2019-02-10T02:26:43.844Z,7.83
2019-02-10T02:29:12.885Z,9.33
2019-02-10T02:31:41.936Z,7.67
2019-02-10T02:34:10.928Z,7.47
2019-02-10T02:36:43.194Z,12.73
2019-02-10T02:39:12.635Z,7.83
2019-02-10T02:41:41.722Z,10.53
2019-02-10T02:44:11.684Z,8.80
2019-02-10T02:46:41.304Z,9.13
2019-02-10T02:49:10.653Z,5.90
2019-02-10T02:51:39.995Z,7.53
2019-02-10T02:54:09.005Z,11.67
2019-02-10T02:56:38.057Z,7.63
2019-02-10T02:59:07.137Z,11.43
2019-02-10T03:01:36.857Z,8.43
2019-02-10T03:04:06.328Z,8.73
2019-02-10T03:06:48.094Z,6.60
2019-02-10T03:09:17.818Z,6.67
2019-02-10T03:11:47.167Z,6.00
2019-02-10T03:14:16.315Z,5.13
2019-02-10T03:16:46.077Z,3.63
2019-02-10T03:19:15.104Z,4.60
2019-02-10T03:21:44.477Z,4.13
2019-02-10T03:24:13.693Z,6.20
2019-02-10T03:26:43.097Z,4.30
2019-02-10T03:29:12.379Z,4.93
2019-02-10T03:31:41.505Z,5.50
2019-02-10T03:34:10.529Z,5.27
2019-02-10T03:36:39.596Z,3.77
2019-02-10T03:39:08.598Z,4.27
2019-02-10T03:41:39.519Z,4.60
2019-02-10T03:44:09.088Z,6.40
2019-02-10T03:46:38.571Z,6.03
2019-02-10T03:49:08.003Z,4.47
2019-02-10T03:51:37.040Z,7.57
2019-02-10T03:54:06.106Z,3.53
2019-02-10T03:56:35.108Z,4.70
2019-02-10T03:59:04.687Z,3.77
2019-02-10T04:01:33.915Z,3.77
2019-02-10T04:04:02.940Z,6.90
2019-02-10T04:06:32.942Z,5.80
2019-02-10T04:09:01.982Z,6.63
2019-02-10T04:11:31.031Z,7.17
2019-02-10T04:14:00.539Z,5.03
2019-02-10T04:16:30.374Z,6.83
2019-02-10T04:18:59.475Z,5.23
2019-02-10T04:21:28.485Z,7.07
2019-02-10T04:23:57.681Z,9.10
2019-02-10T04:26:27.625Z,6.40
2019-02-10T04:28:56.673Z,6.90
2019-02-10T04:31:25.996Z,6.53
2019-02-10T04:33:55.168Z,6.30
2019-02-10T04:36:24.286Z,4.53
2019-02-10T04:38:53.595Z,7.07
2019-02-10T04:41:22.821Z,7.10
2019-02-10T04:43:52.242Z,5.50
2019-02-10T04:46:21.271Z,5.17
2019-02-10T04:48:50.897Z,9.93
2019-02-10T04:51:20.125Z,6.83
2019-02-10T04:53:49.164Z,7.03
2019-02-10T04:56:19.455Z,6.23
2019-02-10T04:58:48.628Z,5.90
2019-02-10T05:01:17.648Z,5.20
2019-02-10T05:03:46.672Z,4.80
2019-02-10T05:06:15.890Z,5.70
2019-02-10T05:08:45.214Z,5.20
2019-02-10T05:11:14.235Z,7.10
2019-02-10T05:13:46.829Z,5.10
2019-02-10T05:16:16.508Z,5.60
2019-02-10T05:18:45.984Z,6.40
2019-02-10T05:21:15.258Z,5.97
2019-02-10T05:23:45.133Z,6.10
2019-02-10T05:26:14.754Z,6.73
2019-02-10T05:28:43.949Z,6.03
2019-02-10T05:31:13.334Z,8.00
2019-02-10T05:33:44.968Z,6.80
2019-02-10T05:36:13.626Z,5.10
2019-02-10T05:38:46.439Z,4.27
2019-02-10T05:41:15.454Z,5.93
2019-02-10T05:43:44.942Z,4.90
2019-02-10T05:46:14.893Z,4.37
2019-02-10T05:48:43.956Z,6.43
2019-02-10T05:51:13.585Z,4.90
2019-02-10T05:53:44.545Z,4.80
2019-02-10T05:56:13.777Z,6.23
2019-02-10T05:58:44.997Z,4.10
2019-02-10T06:01:53.395Z,8.70
2019-02-10T06:04:24.659Z,4.23
2019-02-10T06:06:55.966Z,4.77
2019-02-10T06:09:25.621Z,4.40
2019-02-10T06:11:55.738Z,5.60
2019-02-10T06:14:25.369Z,6.17
2019-02-10T06:16:54.435Z,5.20
2019-02-10T06:19:24.085Z,5.43
2019-02-10T06:21:53.137Z,4.27
2019-02-10T06:24:23.067Z,3.27
2019-02-10T06:26:52.681Z,4.90
2019-02-10T06:29:21.722Z,4.03
2019-02-10T06:31:51.050Z,3.23
2019-02-10T06:34:20.395Z,4.13
2019-02-10T06:36:49.996Z,3.87
2019-02-10T06:39:19.695Z,3.37
2019-02-10T06:41:48.797Z,2.43
2019-02-10T06:44:18.199Z,4.67
2019-02-10T06:46:49.179Z,2.97
2019-02-10T06:49:18.565Z,3.13
2019-02-10T06:51:47.618Z,3.57
2019-02-10T06:54:16.805Z,2.53
2019-02-10T06:56:48.179Z,2.77
2019-02-10T06:59:41.927Z,1.97
2019-02-10T07:02:30.429Z,0.87
2019-02-10T07:05:00.271Z,1.00
2019-02-10T07:07:29.492Z,0.83
2019-02-10T07:09:58.839Z,1.10
2019-02-10T07:12:47.009Z,1.70
2019-02-10T07:15:52.181Z,0.67
2019-02-10T07:18:57.069Z,1.23
2019-02-10T07:21:30.034Z,2.63
2019-02-10T07:24:18.717Z,1.13
2019-02-10T07:26:56.453Z,2.53
2019-02-10T07:30:08.015Z,0.70
2019-02-10T07:32:41.195Z,1.27
2019-02-10T07:35:42.732Z,1.50
2019-02-10T07:38:21.349Z,2.57
2019-02-10T07:41:44.094Z,1.27
2019-02-10T07:44:41.433Z,0.93
2019-02-10T07:47:44.838Z,2.73
2019-02-10T07:50:53.959Z,3.67
2019-02-10T07:53:53.842Z,2.43
2019-02-10T07:57:12.762Z,1.67
2019-02-10T08:00:25.994Z,1.90
2019-02-10T08:03:32.267Z,2.97
2019-02-10T08:06:43.867Z,3.80
2019-02-10T08:09:28.920Z,4.43
2019-02-10T08:12:17.248Z,4.43
2019-02-10T08:15:42.972Z,4.43
2019-02-10T08:19:12.768Z,4.00
2019-02-10T08:21:55.069Z,4.33
2019-02-10T08:24:55.269Z,3.80
2019-02-10T08:28:20.580Z,4.07
2019-02-10T08:31:27.304Z,2.83
2019-02-10T08:34:19.220Z,2.80
2019-02-10T08:37:09.770Z,1.20
2019-02-10T08:40:05.556Z,2.93
2019-02-10T08:43:17.673Z,2.67
2019-02-10T08:46:12.377Z,3.57
2019-02-10T08:49:23.064Z,4.03
2019-02-10T08:52:19.389Z,4.73
2019-02-10T08:54:48.946Z,1.53
2019-02-10T08:57:18.356Z,1.97
2019-02-10T08:59:47.645Z,4.17
2019-02-10T09:02:17.381Z,3.73
2019-02-10T09:04:46.444Z,1.97
2019-02-10T09:07:16.528Z,3.90
2019-02-10T09:09:50.826Z,4.73
2019-02-10T09:12:20.016Z,4.77
2019-02-10T09:14:50.797Z,1.73
2019-02-10T09:17:19.934Z,3.03
2019-02-10T09:19:49.318Z,3.10
2019-02-10T09:22:20.161Z,2.80
2019-02-10T09:24:51.411Z,2.67
2019-02-10T09:27:21.108Z,6.07
2019-02-10T09:29:50.924Z,4.13
2019-02-10T09:32:21.464Z,3.13
2019-02-10T09:34:51.055Z,3.73
2019-02-10T09:37:23.099Z,2.30
2019-02-10T09:39:52.844Z,3.87
2019-02-10T09:42:22.097Z,5.80
2019-02-10T09:44:52.024Z,3.90
2019-02-10T09:47:25.162Z,3.53
2019-02-10T09:49:55.142Z,3.23
2019-02-10T09:52:25.613Z,4.93
2019-02-10T09:54:55.481Z,4.57
2019-02-10T09:57:24.873Z,4.33
2019-02-10T09:59:54.824Z,7.00
2019-02-10T10:02:24.832Z,5.73
2019-02-10T10:04:54.934Z,3.27
2019-02-10T10:07:25.306Z,3.20
2019-02-10T10:09:55.298Z,4.53
2019-02-10T10:12:25.224Z,7.93
2019-02-10T10:14:54.796Z,5.30
2019-02-10T10:17:23.926Z,3.70
2019-02-10T10:19:55.160Z,4.07
2019-02-10T10:22:25.552Z,5.13
2019-02-10T10:24:55.548Z,4.47
2019-02-10T10:27:26.672Z,4.57
2019-02-10T10:29:56.117Z,2.63
2019-02-10T10:32:27.446Z,3.27
2019-02-10T10:34:58.069Z,5.27
2019-02-10T10:37:27.502Z,5.07
2019-02-10T10:39:57.105Z,2.73
2019-02-10T10:42:26.315Z,5.43
2019-02-10T10:44:56.088Z,4.13
2019-02-10T10:47:25.120Z,3.27
2019-02-10T10:49:55.318Z,3.00
2019-02-10T10:52:24.842Z,3.93
2019-02-10T10:54:53.902Z,2.57
2019-02-10T10:57:25.193Z,3.40
2019-02-10T10:59:54.878Z,1.87
2019-02-10T11:02:24.504Z,2.53
2019-02-10T11:04:54.153Z,3.77
2019-02-10T11:07:23.256Z,1.43
2019-02-10T11:09:52.854Z,3.17
2019-02-10T11:12:22.359Z,2.07
2019-02-10T11:14:51.497Z,2.30
2019-02-10T11:17:20.853Z,1.20
2019-02-10T11:19:50.058Z,1.87
2019-02-10T11:22:19.285Z,3.50
2019-02-10T11:24:48.585Z,1.53
2019-02-10T11:27:18.122Z,3.73
2019-02-10T11:29:48.140Z,3.20
2019-02-10T11:32:17.743Z,2.77
2019-02-10T11:34:47.314Z,1.63
2019-02-10T11:37:26.802Z,5.10
2019-02-10T11:39:51.958Z,1.40
2019-02-10T11:42:22.232Z,3.07
2019-02-10T11:44:52.191Z,3.83
2019-02-10T11:47:21.622Z,3.37
2019-02-10T11:49:51.530Z,2.97
2019-02-10T11:52:20.831Z,7.73
2019-02-10T11:54:50.412Z,1.80
2019-02-10T11:57:19.694Z,4.47
2019-02-10T11:59:49.399Z,8.03
2019-02-10T12:02:18.582Z,2.10
2019-02-10T12:04:48.956Z,4.17
2019-02-10T12:07:18.952Z,6.43
2019-02-10T12:09:51.788Z,4.03
2019-02-10T12:12:19.712Z,5.30
2019-02-10T12:14:50.411Z,3.93
2019-02-10T12:17:20.082Z,5.17
2019-02-10T12:19:49.752Z,6.53
2019-02-10T12:22:18.946Z,7.30
2019-02-10T12:24:49.256Z,6.50
2019-02-10T12:27:19.035Z,5.60
2019-02-10T12:29:48.878Z,1.93
2019-02-10T12:32:19.922Z,4.90
2019-02-10T12:34:49.393Z,3.53
2019-02-10T12:37:18.889Z,2.50
2019-02-10T12:39:49.745Z,2.50
2019-02-10T12:42:19.664Z,3.30
2019-02-10T12:44:49.395Z,3.43
2019-02-10T12:47:18.930Z,4.20
2019-02-10T12:49:48.322Z,3.63
2019-02-10T12:52:17.768Z,3.60
2019-02-10T12:54:47.585Z,2.67
2019-02-10T12:57:16.886Z,2.27
2019-02-10T12:59:46.280Z,3.27
2019-02-10T13:02:15.863Z,2.57
2019-02-10T13:04:45.843Z,6.37
2019-02-10T13:07:15.272Z,3.60
2019-02-10T13:09:44.777Z,2.93
2019-02-10T13:12:22.688Z,2.83
2019-02-10T13:14:52.368Z,3.33
2019-02-10T13:17:21.656Z,5.37
2019-02-10T13:19:51.754Z,3.03
2019-02-10T13:22:21.060Z,5.80
2019-02-10T13:24:50.784Z,4.57
2019-02-10T13:27:20.012Z,1.93
2019-02-10T13:29:49.508Z,4.47
2019-02-10T13:32:18.846Z,7.00
2019-02-10T13:34:48.064Z,4.60
2019-02-10T13:37:17.316Z,5.27
2019-02-10T13:39:46.714Z,6.93
2019-02-10T13:42:15.970Z,5.73
2019-02-10T13:44:45.292Z,4.70
2019-02-10T13:47:14.631Z,4.67
2019-02-10T13:49:44.080Z,8.53
2019-02-10T13:52:13.667Z,5.43
2019-02-10T13:54:43.022Z,5.93
2019-02-10T13:57:12.524Z,2.80
2019-02-10T13:59:42.026Z,4.83
2019-02-10T14:02:14.834Z,2.87
2019-02-10T14:04:44.238Z,4.87
2019-02-10T14:07:14.046Z,6.23
2019-02-10T14:09:43.269Z,4.13
2019-02-10T14:12:12.637Z,4.03
2019-02-10T14:14:42.008Z,4.17
2019-02-10T14:17:11.558Z,5.10
2019-02-10T14:19:40.653Z,3.57
2019-02-10T14:22:10.015Z,5.77
2019-02-10T14:24:39.031Z,4.80
2019-02-10T14:27:08.708Z,4.47
2019-02-10T14:29:38.032Z,3.10
2019-02-10T14:32:07.255Z,2.57
2019-02-10T14:34:36.631Z,4.80
2019-02-10T14:37:06.161Z,1.47
2019-02-10T14:39:35.726Z,1.30
2019-02-10T14:42:05.186Z,1.10
2019-02-10T14:44:34.454Z,4.50
2019-02-10T14:47:03.478Z,0.97
2019-02-10T14:49:32.540Z,4.50
2019-02-10T14:52:02.140Z,0.80
2019-02-10T14:54:32.094Z,2.23
2019-02-10T14:57:01.808Z,1.90
2019-02-10T14:59:31.148Z,3.17
2019-02-10T15:02:01.698Z,2.00
2019-02-10T15:04:33.449Z,2.10
2019-02-10T15:07:02.911Z,2.80
2019-02-10T15:09:32.712Z,2.70
2019-02-10T15:12:01.950Z,3.67
2019-02-10T15:14:30.966Z,2.27
2019-02-10T15:17:00.046Z,4.17
2019-02-10T15:19:29.350Z,3.23
2019-02-10T15:21:58.996Z,2.97
2019-02-10T15:24:28.477Z,2.63
2019-02-10T15:26:59.530Z,2.93
2019-02-10T15:29:29.891Z,4.37
2019-02-10T15:32:00.391Z,6.47
2019-02-10T15:34:29.636Z,5.77
2019-02-10T15:36:58.699Z,6.03
2019-02-10T15:39:28.930Z,6.30
2019-02-10T15:41:58.036Z,2.67
2019-02-10T15:44:27.098Z,6.87
2019-02-10T15:46:56.120Z,4.40
2019-02-10T15:49:25.355Z,5.00
2019-02-10T15:51:54.368Z,3.03
2019-02-10T15:54:23.762Z,3.63
2019-02-10T15:56:53.062Z,4.30
2019-02-10T15:59:22.134Z,3.37
2019-02-10T16:01:52.655Z,4.87
2019-02-10T16:04:21.727Z,5.13
2019-02-10T16:06:50.804Z,6.63
2019-02-10T16:09:19.970Z,6.03
2019-02-10T16:11:49.057Z,7.80
2019-02-10T16:14:18.327Z,6.50
2019-02-10T16:16:48.509Z,4.87
2019-02-10T16:19:18.538Z,7.10
2019-02-10T16:21:47.685Z,4.67
2019-02-10T16:24:16.713Z,6.70
2019-02-10T16:26:45.742Z,9.83
2019-02-10T16:29:15.577Z,6.47
2019-02-10T16:31:45.615Z,6.57
2019-02-10T16:34:15.098Z,6.17
2019-02-10T16:36:45.185Z,4.93
2019-02-10T16:39:15.957Z,4.93
2019-02-10T16:41:46.647Z,7.30
2019-02-10T16:44:16.330Z,4.93
2019-02-10T16:46:46.404Z,3.80
2019-02-10T16:49:16.324Z,3.80
2019-02-10T16:51:45.786Z,5.00
2019-02-10T16:54:15.138Z,3.47
2019-02-10T16:56:44.954Z,5.00
2019-02-10T16:59:15.921Z,7.17
2019-02-10T17:01:45.832Z,4.77
2019-02-10T17:04:14.885Z,4.90
2019-02-10T17:06:43.962Z,6.53
2019-02-10T17:09:13.014Z,3.83
2019-02-10T17:11:42.435Z,8.33
2019-02-10T17:14:11.487Z,8.63
2019-02-10T17:16:40.539Z,10.00
2019-02-10T17:19:10.130Z,7.53
2019-02-10T17:21:39.361Z,6.63
2019-02-10T17:24:08.344Z,7.30
2019-02-10T17:26:37.383Z,5.23
2019-02-10T17:29:07.132Z,3.00
2019-02-10T17:31:36.201Z,8.17
2019-02-10T17:34:05.489Z,5.63
2019-02-10T17:36:34.561Z,3.70
2019-02-10T17:39:04.381Z,5.80
2019-02-10T17:41:36.752Z,9.00
2019-02-10T17:44:05.868Z,5.93
2019-02-10T17:46:35.196Z,9.60
2019-02-10T17:49:04.226Z,6.40
2019-02-10T17:51:33.345Z,7.57
2019-02-10T17:54:02.673Z,4.80
2019-02-10T17:56:31.758Z,4.53
2019-02-10T17:59:00.829Z,4.23
2019-02-10T18:01:30.179Z,3.67
2019-02-10T18:03:59.152Z,2.87
2019-02-10T18:06:28.146Z,4.10
2019-02-10T18:08:57.200Z,5.60
2019-02-10T18:11:31.030Z,3.23
2019-02-10T18:13:57.079Z,3.43
2019-02-10T18:16:42.241Z,3.23
2019-02-10T18:19:39.079Z,4.30
2019-02-10T18:22:36.788Z,6.60
2019-02-10T18:25:27.499Z,5.70
2019-02-10T18:28:27.310Z,5.60
2019-02-10T18:31:13.654Z,6.17
2019-02-10T18:34:16.749Z,8.60
2019-02-10T18:37:03.518Z,6.97
2019-02-10T18:39:54.575Z,10.20
2019-02-10T18:42:48.523Z,7.33
2019-02-10T18:45:46.091Z,10.17
2019-02-10T18:48:28.567Z,6.53
2019-02-10T18:51:12.403Z,6.63
2019-02-10T18:53:57.199Z,6.63
2019-02-10T18:56:50.329Z,8.07
2019-02-10T18:59:38.273Z,8.33
2019-02-10T19:02:25.255Z,10.37
2019-02-10T19:05:09.917Z,10.03
2019-02-10T19:07:49.601Z,6.93
2019-02-10T19:10:36.660Z,7.87
2019-02-10T19:13:23.514Z,5.23
2019-02-10T19:16:07.860Z,7.57
2019-02-10T19:18:55.923Z,11.07
2019-02-10T19:21:42.941Z,9.87
2019-02-10T19:24:23.746Z,7.27
2019-02-10T19:27:10.771Z,6.27
2019-02-10T19:30:02.761Z,7.40
2019-02-10T19:32:43.685Z,5.80
2019-02-10T19:35:34.795Z,9.20
2019-02-10T19:38:29.191Z,8.27
2019-02-10T19:41:23.846Z,6.33
2019-02-10T19:44:11.577Z,7.80
2019-02-10T19:46:59.789Z,3.53
2019-02-10T19:49:56.869Z,6.03
2019-02-10T19:52:44.952Z,6.93
2019-02-10T19:55:28.607Z,4.67
2019-02-10T19:58:20.194Z,8.07
2019-02-10T20:01:08.485Z,5.40
2019-02-10T20:03:44.693Z,6.00
2019-02-10T20:06:33.328Z,7.43
2019-02-10T20:09:18.879Z,8.20
2019-02-10T20:12:07.083Z,5.47
2019-02-10T20:15:04.232Z,10.03
2019-02-10T20:17:50.469Z,6.67
2019-02-10T20:20:41.474Z,5.80
2019-02-10T20:23:30.001Z,5.20
2019-02-10T20:26:19.857Z,4.67
2019-02-10T20:29:16.710Z,6.40
2019-02-10T20:32:03.619Z,6.20
2019-02-10T20:34:57.109Z,4.50
2019-02-10T20:37:50.896Z,5.73
2019-02-10T20:40:33.078Z,5.27
2019-02-10T20:43:21.521Z,5.27
2019-02-10T20:46:15.925Z,5.97
2019-02-10T20:49:09.869Z,5.50
2019-02-10T20:51:49.496Z,7.73
2019-02-10T20:54:36.763Z,5.47
2019-02-10T20:57:22.437Z,5.07
2019-02-10T21:00:10.420Z,3.87
2019-02-10T21:02:48.069Z,6.70
2019-02-10T21:05:36.405Z,4.33
2019-02-10T21:08:24.423Z,6.37
2019-02-10T21:11:18.758Z,7.27
2019-02-10T21:14:24.846Z,4.20
2019-02-10T21:17:10.066Z,4.80
2019-02-10T21:19:58.171Z,3.83
2019-02-10T21:22:35.172Z,5.23
2019-02-10T21:25:22.033Z,3.20
2019-02-10T21:28:25.236Z,2.50
2019-02-10T21:31:16.335Z,6.87
2019-02-10T21:34:07.109Z,5.83
2019-02-10T21:36:55.366Z,5.60
2019-02-10T21:39:49.507Z,5.97
2019-02-10T21:42:29.121Z,4.47
2019-02-10T21:45:06.627Z,5.30
2019-02-10T21:47:48.939Z,7.47
2019-02-10T21:50:18.303Z,12.87
2019-02-10T21:52:48.017Z,5.60
2019-02-10T21:55:16.998Z,6.10
2019-02-10T21:57:46.180Z,4.97
2019-02-10T22:00:15.763Z,4.13
2019-02-10T22:02:45.148Z,4.73
2019-02-10T22:05:14.209Z,9.90
2019-02-10T22:07:43.252Z,11.00
2019-02-10T22:10:12.579Z,5.60
2019-02-10T22:12:41.884Z,6.43
2019-02-10T22:15:11.075Z,6.40
2019-02-10T22:17:40.404Z,4.83
2019-02-10T22:20:13.945Z,4.80
2019-02-10T22:22:44.041Z,5.00
2019-02-10T22:25:13.055Z,5.00
2019-02-10T22:27:42.888Z,5.40
2019-02-10T22:30:14.447Z,5.33
2019-02-10T22:32:43.989Z,6.67
2019-02-10T22:35:14.203Z,10.20
2019-02-10T22:37:43.355Z,3.20
2019-02-10T22:40:12.570Z,6.37
2019-02-10T22:42:45.887Z,9.20
2019-02-10T22:45:13.372Z,5.60
2019-02-10T22:47:42.800Z,10.07
2019-02-10T22:50:13.364Z,6.20
2019-02-10T22:52:42.989Z,9.73
2019-02-10T22:55:11.993Z,5.43
2019-02-10T22:57:41.464Z,7.20
2019-02-10T23:00:28.124Z,7.83
2019-02-10T23:02:57.487Z,6.43
2019-02-10T23:05:26.923Z,7.93
2019-02-10T23:07:56.126Z,4.40
2019-02-10T23:10:25.260Z,5.73
2019-02-10T23:12:54.284Z,10.07
2019-02-10T23:15:23.660Z,8.93
2019-02-10T23:17:52.680Z,7.60
2019-02-10T23:20:21.782Z,7.17
2019-02-10T23:22:50.971Z,8.00
2019-02-10T23:25:20.066Z,5.93
2019-02-10T23:27:49.377Z,9.43
2019-02-10T23:30:18.365Z,5.43
2019-02-10T23:32:47.405Z,6.93
2019-02-10T23:35:16.473Z,6.93
2019-02-10T23:37:45.494Z,6.40
2019-02-10T23:40:14.563Z,5.83
2019-02-10T23:42:43.617Z,6.90
2019-02-10T23:45:12.647Z,10.27
2019-02-10T23:47:41.912Z,10.07
2019-02-10T23:50:11.224Z,4.70
2019-02-10T23:52:40.734Z,8.50
2019-02-10T23:55:10.136Z,10.33
2019-02-10T23:57:39.166Z,7.07
